createdAt,value
2019-03-31T00:00:50.072Z,67.20
2019-03-31T00:03:18.211Z,66.80
2019-03-31T00:05:47.283Z,67.10
2019-03-31T00:08:15.999Z,66.90
2019-03-31T00:10:45.161Z,67.20
2019-03-31T00:13:13.969Z,67.30
2019-03-31T00:15:42.991Z,66.90
2019-03-31T00:18:11.882Z,66.80
2019-03-31T00:20:40.800Z,66.50
2019-03-31T00:23:09.500Z,66.60
2019-03-31T00:25:39.911Z,66.80
2019-03-31T00:28:08.829Z,67.20
2019-03-31T00:30:37.622Z,67.30
2019-03-31T00:33:06.829Z,67.70
2019-03-31T00:35:35.640Z,67.80
2019-03-31T00:38:05.941Z,67.80
2019-03-31T00:40:34.971Z,68.00
2019-03-31T00:43:05.054Z,67.60
2019-03-31T00:45:33.943Z,67.80
2019-03-31T00:48:02.981Z,68.20
2019-03-31T00:50:31.990Z,67.40
2019-03-31T00:53:00.990Z,67.20
2019-03-31T00:55:29.851Z,67.00
2019-03-31T00:57:58.900Z,67.00
2019-03-31T01:00:47.602Z,66.70
2019-03-31T01:03:16.543Z,66.90
2019-03-31T01:05:45.482Z,67.30
2019-03-31T01:08:14.820Z,67.80
2019-03-31T01:10:43.686Z,68.00
2019-03-31T01:13:12.521Z,68.10
2019-03-31T01:15:41.351Z,68.30
2019-03-31T01:18:10.580Z,68.90
2019-03-31T01:20:39.390Z,69.30
2019-03-31T01:23:08.730Z,69.50
2019-03-31T01:25:37.632Z,69.90
2019-03-31T01:28:06.767Z,69.80
2019-03-31T01:30:35.613Z,69.80
2019-03-31T01:33:05.336Z,70.20
2019-03-31T01:35:34.390Z,70.40
2019-03-31T01:38:03.904Z,70.90
2019-03-31T01:40:32.921Z,71.30
2019-03-31T01:43:01.711Z,71.10
2019-03-31T01:45:30.590Z,71.10
2019-03-31T01:48:01.010Z,71.40
2019-03-31T01:50:30.342Z,71.00
2019-03-31T01:52:59.410Z,70.80
2019-03-31T01:55:28.344Z,71.40
2019-03-31T01:57:57.440Z,71.50
2019-03-31T02:00:41.401Z,71.40
2019-03-31T02:03:10.202Z,71.60
2019-03-31T02:05:39.080Z,71.80
2019-03-31T02:08:08.061Z,71.90
2019-03-31T02:10:36.931Z,71.70
2019-03-31T02:13:06.140Z,71.70
2019-03-31T02:15:34.990Z,71.50
2019-03-31T02:18:04.695Z,71.50
2019-03-31T02:20:33.630Z,71.70
2019-03-31T02:23:02.471Z,71.50
2019-03-31T02:25:31.571Z,71.90
2019-03-31T02:28:00.491Z,71.50
2019-03-31T02:30:29.394Z,72.10
2019-03-31T02:32:58.190Z,72.20
2019-03-31T02:35:27.381Z,72.00
2019-03-31T02:37:56.471Z,71.80
2019-03-31T02:40:25.361Z,72.40
2019-03-31T02:42:54.350Z,71.70
2019-03-31T02:45:23.350Z,72.00
2019-03-31T02:47:52.238Z,72.00
2019-03-31T02:50:47.752Z,72.00
2019-03-31T02:53:18.184Z,71.70
2019-03-31T02:55:47.132Z,72.40
2019-03-31T02:58:16.366Z,72.80
2019-03-31T03:03:27.734Z,72.20
2019-03-31T03:05:57.402Z,71.80
2019-03-31T03:08:26.270Z,71.80
2019-03-31T03:10:55.151Z,71.00
2019-03-31T03:13:24.709Z,71.40
2019-03-31T03:15:56.730Z,71.60
2019-03-31T03:18:25.603Z,72.10
2019-03-31T03:20:54.391Z,72.50
2019-03-31T03:23:23.162Z,73.40
2019-03-31T03:25:56.177Z,72.90
2019-03-31T03:28:22.620Z,72.10
2019-03-31T03:30:51.450Z,72.00
2019-03-31T03:33:20.530Z,72.00
2019-03-31T03:35:50.006Z,71.40
2019-03-31T03:38:19.005Z,71.00
2019-03-31T03:40:48.113Z,71.40
2019-03-31T03:43:16.905Z,71.50
2019-03-31T03:45:45.802Z,70.70
2019-03-31T03:48:14.622Z,70.70
2019-03-31T03:50:43.563Z,70.90
2019-03-31T03:53:12.468Z,71.90
2019-03-31T03:55:41.474Z,71.80
2019-03-31T03:58:10.563Z,71.30
2019-03-31T04:00:39.287Z,71.40
2019-03-31T04:03:08.024Z,71.00
2019-03-31T04:05:36.892Z,69.80
2019-03-31T04:08:06.326Z,69.00
2019-03-31T04:10:47.348Z,69.10
2019-03-31T04:13:16.325Z,68.80
2019-03-31T04:15:45.315Z,69.30
2019-03-31T04:18:14.263Z,70.50
2019-03-31T04:20:43.264Z,69.50
2019-03-31T04:23:12.209Z,70.30
2019-03-31T04:25:41.113Z,70.60
2019-03-31T04:28:09.953Z,70.70
2019-03-31T04:30:38.852Z,70.60
2019-03-31T04:33:07.486Z,70.00
2019-03-31T04:35:36.312Z,70.20
2019-03-31T04:38:05.718Z,70.50
2019-03-31T04:40:34.590Z,70.40
2019-03-31T04:43:04.491Z,70.70
2019-03-31T04:45:33.351Z,70.70
2019-03-31T04:48:02.938Z,70.00
2019-03-31T04:50:31.683Z,70.20
2019-03-31T04:53:00.531Z,70.10
2019-03-31T04:55:29.570Z,70.00
2019-03-31T04:57:58.532Z,70.00
2019-03-31T05:00:27.475Z,69.80
2019-03-31T05:02:56.300Z,70.70
2019-03-31T05:05:25.053Z,70.90
2019-03-31T05:07:53.910Z,70.90
2019-03-31T05:10:22.770Z,71.20
2019-03-31T05:12:51.511Z,71.30
2019-03-31T05:15:20.403Z,71.50
2019-03-31T05:17:49.422Z,71.30
2019-03-31T05:20:18.374Z,70.70
2019-03-31T05:22:47.400Z,71.10
2019-03-31T05:25:16.401Z,70.40
2019-03-31T05:27:45.330Z,69.20
2019-03-31T05:30:14.062Z,69.10
2019-03-31T05:32:42.901Z,69.30
2019-03-31T05:35:11.680Z,68.60
2019-03-31T05:37:50.883Z,68.90
2019-03-31T05:40:10.952Z,68.10
2019-03-31T05:42:39.881Z,69.20
2019-03-31T05:45:08.871Z,69.30
2019-03-31T05:47:37.773Z,70.10
2019-03-31T05:50:06.966Z,70.60
2019-03-31T05:52:35.790Z,70.90
2019-03-31T05:55:06.402Z,71.40
2019-03-31T05:57:35.383Z,71.10
2019-03-31T06:00:05.975Z,70.90
2019-03-31T06:02:33.971Z,72.00
2019-03-31T06:05:03.315Z,72.50
2019-03-31T06:07:32.238Z,71.70
2019-03-31T06:10:01.151Z,71.20
2019-03-31T06:12:29.977Z,71.30
2019-03-31T06:14:58.751Z,71.20
2019-03-31T06:17:27.671Z,71.00
2019-03-31T06:19:56.403Z,72.00
2019-03-31T06:22:25.371Z,71.60
2019-03-31T06:24:54.401Z,71.40
2019-03-31T06:27:23.421Z,71.20
2019-03-31T06:29:52.232Z,70.90
2019-03-31T06:32:21.581Z,71.40
2019-03-31T06:34:50.414Z,71.50
2019-03-31T06:37:19.660Z,72.60
2019-03-31T06:39:48.731Z,72.10
2019-03-31T06:42:17.720Z,72.10
2019-03-31T06:44:46.584Z,72.60
2019-03-31T06:47:15.551Z,73.10
2019-03-31T06:49:44.385Z,73.10
2019-03-31T06:52:13.211Z,73.00
2019-03-31T06:54:42.042Z,73.40
2019-03-31T06:57:10.792Z,73.10
2019-03-31T06:59:39.707Z,73.20
2019-03-31T07:02:08.490Z,73.40
2019-03-31T07:04:37.451Z,73.20
2019-03-31T07:07:06.244Z,73.00
2019-03-31T07:09:34.981Z,72.50
2019-03-31T07:12:04.670Z,72.50
2019-03-31T07:14:33.490Z,73.10
2019-03-31T07:17:02.692Z,73.90
2019-03-31T07:19:31.490Z,74.30
2019-03-31T07:22:00.470Z,74.30
2019-03-31T07:24:29.333Z,74.20
2019-03-31T07:26:58.202Z,73.70
2019-03-31T07:29:27.050Z,73.90
2019-03-31T07:31:56.001Z,70.00
2019-03-31T07:34:24.902Z,72.60
2019-03-31T07:36:53.683Z,72.90
2019-03-31T07:39:22.700Z,72.80
2019-03-31T07:41:51.613Z,72.20
2019-03-31T07:44:20.843Z,71.60
2019-03-31T07:46:49.771Z,71.80
2019-03-31T07:49:19.001Z,69.60
2019-03-31T07:51:47.981Z,69.30
2019-03-31T07:54:16.930Z,68.00
2019-03-31T07:56:45.836Z,65.80
2019-03-31T07:59:14.686Z,66.10
2019-03-31T08:01:43.461Z,65.90
2019-03-31T08:04:12.251Z,65.20
2019-03-31T08:06:41.061Z,64.90
2019-03-31T08:09:09.833Z,63.80
2019-03-31T08:11:38.841Z,62.60
2019-03-31T08:14:07.646Z,60.00
2019-03-31T08:16:36.630Z,60.70
2019-03-31T08:19:05.976Z,58.10
2019-03-31T08:21:34.860Z,57.00
2019-03-31T08:24:06.696Z,57.60
2019-03-31T08:26:35.510Z,54.30
2019-03-31T08:29:05.479Z,58.60
2019-03-31T08:31:34.470Z,51.00
2019-03-31T08:34:04.730Z,51.70
2019-03-31T08:36:35.331Z,48.60
2019-03-31T08:39:06.381Z,48.00
2019-03-31T08:41:35.381Z,49.70
2019-03-31T08:44:05.295Z,48.10
2019-03-31T08:46:34.151Z,45.60
2019-03-31T08:49:03.004Z,45.00
2019-03-31T08:51:31.900Z,45.30
2019-03-31T08:54:00.842Z,46.00
2019-03-31T08:56:29.680Z,46.40
2019-03-31T08:58:58.720Z,45.20
2019-03-31T09:01:27.660Z,42.40
2019-03-31T09:03:56.600Z,42.70
2019-03-31T09:06:25.511Z,43.20
2019-03-31T09:08:54.541Z,44.10
2019-03-31T09:11:23.674Z,44.20
2019-03-31T09:13:52.671Z,45.10
2019-03-31T09:16:21.772Z,43.60
2019-03-31T09:18:50.870Z,44.60
2019-03-31T09:21:19.818Z,45.20
2019-03-31T09:23:48.732Z,42.00
2019-03-31T09:26:17.543Z,42.40
2019-03-31T09:28:46.291Z,41.80
2019-03-31T09:31:15.271Z,40.40
2019-03-31T09:33:44.322Z,44.30
2019-03-31T09:36:16.404Z,43.40
2019-03-31T09:38:43.040Z,39.40
2019-03-31T09:41:11.890Z,40.60
2019-03-31T09:43:41.111Z,41.10
2019-03-31T09:46:10.267Z,39.80
2019-03-31T09:48:39.238Z,39.10
2019-03-31T09:51:07.881Z,40.70
2019-03-31T09:53:36.790Z,40.80
2019-03-31T09:56:06.221Z,40.90
2019-03-31T09:58:36.134Z,39.00
2019-03-31T10:01:08.029Z,39.20
2019-03-31T10:03:36.798Z,38.80
2019-03-31T10:06:10.886Z,39.90
2019-03-31T10:08:36.706Z,39.20
2019-03-31T10:11:06.176Z,40.30
2019-03-31T10:13:35.210Z,39.40
2019-03-31T10:16:05.084Z,40.00
2019-03-31T10:18:33.941Z,40.70
2019-03-31T10:21:03.112Z,41.70
2019-03-31T10:23:32.354Z,38.80
2019-03-31T10:26:01.271Z,40.10
2019-03-31T10:28:30.434Z,39.00
2019-03-31T10:30:59.611Z,39.20
2019-03-31T10:33:28.491Z,39.50
2019-03-31T10:35:57.300Z,37.50
2019-03-31T10:38:26.122Z,38.60
2019-03-31T10:40:54.932Z,39.50
2019-03-31T10:43:23.810Z,37.40
2019-03-31T10:45:52.660Z,37.20
2019-03-31T10:48:21.700Z,36.30
2019-03-31T10:50:50.554Z,36.60
2019-03-31T10:53:19.500Z,35.70
2019-03-31T10:55:48.481Z,37.60
2019-03-31T10:58:17.371Z,37.30
2019-03-31T11:00:46.311Z,36.30
2019-03-31T11:03:15.131Z,37.30
2019-03-31T11:05:44.021Z,39.90
2019-03-31T11:08:12.901Z,37.50
2019-03-31T11:10:42.150Z,37.80
2019-03-31T11:13:11.090Z,36.60
2019-03-31T11:15:39.879Z,36.70
2019-03-31T11:18:08.621Z,38.10
2019-03-31T11:20:37.633Z,36.10
2019-03-31T11:23:08.311Z,36.10
2019-03-31T11:25:36.491Z,35.30
2019-03-31T11:28:05.658Z,35.50
2019-03-31T11:30:35.751Z,35.60
2019-03-31T11:33:07.416Z,35.70
2019-03-31T11:35:35.906Z,36.20
2019-03-31T11:38:05.345Z,36.80
2019-03-31T11:40:34.283Z,34.40
2019-03-31T11:43:04.028Z,34.10
2019-03-31T11:45:32.971Z,35.90
2019-03-31T11:48:01.941Z,35.60
2019-03-31T11:50:30.920Z,34.40
2019-03-31T11:52:59.945Z,36.00
2019-03-31T11:55:29.149Z,33.10
2019-03-31T11:57:58.440Z,34.10
2019-03-31T12:00:28.860Z,33.40
2019-03-31T12:02:57.890Z,33.50
2019-03-31T12:05:27.380Z,34.30
2019-03-31T12:07:56.360Z,34.40
2019-03-31T12:10:25.232Z,34.20
2019-03-31T12:12:54.200Z,35.40
2019-03-31T12:15:23.141Z,35.00
2019-03-31T12:17:52.433Z,35.90
2019-03-31T12:20:21.444Z,32.90
2019-03-31T12:22:50.529Z,32.50
2019-03-31T12:25:20.049Z,32.60
2019-03-31T12:27:49.422Z,33.10
2019-03-31T12:30:21.370Z,32.10
2019-03-31T12:32:50.331Z,32.10
2019-03-31T12:35:19.291Z,32.90
2019-03-31T12:37:48.410Z,33.90
2019-03-31T12:40:32.170Z,33.00
2019-03-31T12:43:01.182Z,31.90
2019-03-31T12:45:30.030Z,32.40
2019-03-31T12:48:01.256Z,34.30
2019-03-31T12:50:28.910Z,33.70
2019-03-31T12:52:57.941Z,34.20
2019-03-31T12:55:26.780Z,34.20
2019-03-31T12:57:55.669Z,32.50
2019-03-31T13:00:24.590Z,31.80
2019-03-31T13:02:53.721Z,32.90
2019-03-31T13:05:22.821Z,32.40
2019-03-31T13:07:56.693Z,31.40
2019-03-31T13:10:21.370Z,29.80
2019-03-31T13:12:50.274Z,32.60
2019-03-31T13:15:19.059Z,31.40
2019-03-31T13:17:48.249Z,32.00
2019-03-31T13:20:18.261Z,32.40
2019-03-31T13:22:47.273Z,31.60
2019-03-31T13:25:16.080Z,33.40
2019-03-31T13:27:44.951Z,33.40
2019-03-31T13:30:13.791Z,32.30
2019-03-31T13:32:42.670Z,34.50
2019-03-31T13:35:11.461Z,32.10
2019-03-31T13:37:41.030Z,33.10
2019-03-31T13:40:10.111Z,32.90
2019-03-31T13:42:39.080Z,31.20
2019-03-31T13:45:07.930Z,29.20
2019-03-31T13:47:36.962Z,29.70
2019-03-31T13:50:07.814Z,32.80
2019-03-31T13:52:36.742Z,31.60
2019-03-31T13:55:08.850Z,32.60
2019-03-31T13:57:39.796Z,31.80
2019-03-31T14:00:09.007Z,32.30
2019-03-31T14:02:38.160Z,33.30
2019-03-31T14:05:07.609Z,31.70
2019-03-31T14:07:36.511Z,30.80
2019-03-31T14:10:06.704Z,32.50
2019-03-31T14:12:35.520Z,31.20
2019-03-31T14:15:18.373Z,30.40
2019-03-31T14:17:37.127Z,30.00
2019-03-31T14:20:07.381Z,32.10
2019-03-31T14:22:36.181Z,29.10
2019-03-31T14:25:06.389Z,29.90
2019-03-31T14:27:35.199Z,31.40
2019-03-31T14:30:06.210Z,32.50
2019-03-31T14:32:35.302Z,29.20
2019-03-31T14:35:05.267Z,29.60
2019-03-31T14:37:34.102Z,30.00
2019-03-31T14:40:03.261Z,31.20
2019-03-31T14:42:32.960Z,31.20
2019-03-31T14:45:01.921Z,33.30
2019-03-31T14:47:30.821Z,32.40
2019-03-31T14:49:59.753Z,30.20
2019-03-31T14:52:28.590Z,30.30
2019-03-31T14:54:57.482Z,30.30
2019-03-31T14:57:26.670Z,31.00
2019-03-31T14:59:55.704Z,30.30
2019-03-31T15:02:24.694Z,30.30
2019-03-31T15:04:53.511Z,30.60
2019-03-31T15:07:22.332Z,32.80
2019-03-31T15:09:51.162Z,29.50
2019-03-31T15:12:20.033Z,29.20
2019-03-31T15:14:49.031Z,30.00
2019-03-31T15:17:17.922Z,29.70
2019-03-31T15:19:47.052Z,29.10
2019-03-31T15:22:15.852Z,28.90
2019-03-31T15:24:44.761Z,30.60
2019-03-31T15:27:14.370Z,30.90
2019-03-31T15:29:43.961Z,30.90
2019-03-31T15:32:12.811Z,31.60
2019-03-31T15:34:41.680Z,31.10
2019-03-31T15:37:10.401Z,31.80
2019-03-31T15:39:39.441Z,32.80
2019-03-31T15:42:08.480Z,32.00
2019-03-31T15:44:37.271Z,32.10
2019-03-31T15:47:06.815Z,33.60
2019-03-31T15:49:35.671Z,33.90
2019-03-31T15:52:08.687Z,32.80
2019-03-31T15:54:36.012Z,34.30
2019-03-31T15:57:05.679Z,31.80
2019-03-31T15:59:34.702Z,32.90
2019-03-31T16:02:04.537Z,34.50
2019-03-31T16:04:33.771Z,33.40
2019-03-31T16:07:03.851Z,33.50
2019-03-31T16:09:33.044Z,33.40
2019-03-31T16:12:01.891Z,35.60
2019-03-31T16:14:30.760Z,32.50
2019-03-31T16:16:59.673Z,34.70
2019-03-31T16:19:28.541Z,34.90
2019-03-31T16:21:57.431Z,35.40
2019-03-31T16:24:34.143Z,36.80
2019-03-31T16:27:03.621Z,37.90
2019-03-31T16:29:33.681Z,34.50
2019-03-31T16:32:03.021Z,36.10
2019-03-31T16:34:32.511Z,35.90
2019-03-31T16:37:01.561Z,36.90
2019-03-31T16:39:37.512Z,37.30
2019-03-31T16:42:01.291Z,36.90
2019-03-31T16:44:30.263Z,37.10
2019-03-31T16:46:58.991Z,37.50
2019-03-31T16:49:27.791Z,37.90
2019-03-31T16:51:57.061Z,39.20
2019-03-31T16:54:25.932Z,40.10
2019-03-31T16:56:55.411Z,40.70
2019-03-31T16:59:24.873Z,41.60
2019-03-31T17:01:53.592Z,41.20
2019-03-31T17:04:22.513Z,40.50
2019-03-31T17:06:51.371Z,40.60
2019-03-31T17:09:20.311Z,40.70
2019-03-31T17:11:49.440Z,41.00
2019-03-31T17:14:18.221Z,40.90
2019-03-31T17:16:47.422Z,42.10
2019-03-31T17:19:16.286Z,42.00
2019-03-31T17:21:45.600Z,42.30
2019-03-31T17:24:14.462Z,43.10
2019-03-31T17:26:43.361Z,43.30
2019-03-31T17:29:12.551Z,43.80
2019-03-31T17:31:41.281Z,44.00
2019-03-31T17:34:10.291Z,44.20
2019-03-31T17:36:39.091Z,44.10
2019-03-31T17:39:08.740Z,44.20
2019-03-31T17:41:37.600Z,44.10
2019-03-31T17:44:07.148Z,44.50
2019-03-31T17:46:36.181Z,45.40
2019-03-31T17:49:05.596Z,45.10
2019-03-31T17:51:34.491Z,45.30
2019-03-31T17:54:06.202Z,45.10
2019-03-31T17:56:34.721Z,45.80
2019-03-31T17:59:08.649Z,45.80
2019-03-31T18:01:35.631Z,46.00
2019-03-31T18:04:05.283Z,45.90
2019-03-31T18:06:34.681Z,46.50
2019-03-31T18:09:05.608Z,47.00
2019-03-31T18:11:34.491Z,47.20
2019-03-31T18:14:06.857Z,47.20
2019-03-31T18:16:34.730Z,47.30
2019-03-31T18:19:04.661Z,47.70
2019-03-31T18:21:33.510Z,47.90
2019-03-31T18:24:02.753Z,48.10
2019-03-31T18:26:31.771Z,48.90
2019-03-31T18:29:00.661Z,48.50
2019-03-31T18:31:29.501Z,49.00
2019-03-31T18:33:58.477Z,48.30
2019-03-31T18:36:36.317Z,48.30
2019-03-31T18:38:57.981Z,48.30
2019-03-31T18:41:27.451Z,48.50
2019-03-31T18:43:56.640Z,49.00
2019-03-31T18:46:25.590Z,49.10
2019-03-31T18:48:54.461Z,49.30
2019-03-31T18:51:23.450Z,49.10
2019-03-31T18:53:56.752Z,49.30
2019-03-31T18:56:42.161Z,49.10
2019-03-31T18:59:19.180Z,49.50
2019-03-31T19:01:49.691Z,49.20
2019-03-31T19:04:29.610Z,49.30
2019-03-31T19:07:08.730Z,48.90
2019-03-31T19:09:39.460Z,49.50
2019-03-31T19:12:15.321Z,50.10
2019-03-31T19:14:55.271Z,50.40
2019-03-31T19:17:26.191Z,49.20
2019-03-31T19:20:13.111Z,48.30
2019-03-31T19:22:59.111Z,47.80
2019-03-31T19:25:44.960Z,48.10
2019-03-31T19:28:18.380Z,48.10
2019-03-31T19:31:05.545Z,48.10
2019-03-31T19:33:38.871Z,48.70
2019-03-31T19:36:24.641Z,48.40
2019-03-31T19:39:11.291Z,48.90
2019-03-31T19:41:58.291Z,49.50
2019-03-31T19:44:28.761Z,49.80
2019-03-31T19:46:59.160Z,49.80
2019-03-31T19:49:29.730Z,50.10
2019-03-31T19:52:06.752Z,50.00
2019-03-31T19:54:43.463Z,50.10
2019-03-31T19:57:30.181Z,50.20
2019-03-31T20:00:06.558Z,50.40
2019-03-31T20:02:40.051Z,50.90
2019-03-31T20:05:16.225Z,51.20
2019-03-31T20:07:55.870Z,50.90
2019-03-31T20:10:26.373Z,51.80
2019-03-31T20:13:12.991Z,52.20
2019-03-31T20:15:46.340Z,52.30
2019-03-31T20:18:19.711Z,52.00
2019-03-31T20:20:55.590Z,51.70
2019-03-31T20:23:28.841Z,52.00
2019-03-31T20:26:10.832Z,51.60
2019-03-31T20:28:53.831Z,52.40
2019-03-31T20:31:24.322Z,51.50
2019-03-31T20:34:10.801Z,51.40
2019-03-31T20:36:43.951Z,51.60
2019-03-31T20:39:19.947Z,52.40
2019-03-31T20:41:55.822Z,52.90
2019-03-31T20:44:24.718Z,53.00
2019-03-31T20:46:53.730Z,52.20
2019-03-31T20:49:22.630Z,51.80
2019-03-31T20:51:51.460Z,51.20
2019-03-31T20:54:20.402Z,51.80
2019-03-31T20:56:49.330Z,51.10
2019-03-31T20:59:18.141Z,51.90
2019-03-31T21:01:47.191Z,52.10
2019-03-31T21:04:16.114Z,51.60
2019-03-31T21:06:45.071Z,52.20
2019-03-31T21:09:13.841Z,51.60
2019-03-31T21:11:42.711Z,52.50
2019-03-31T21:14:12.141Z,53.00
2019-03-31T21:16:41.251Z,52.60
2019-03-31T21:19:10.101Z,52.00
2019-03-31T21:21:39.310Z,52.80
2019-03-31T21:24:07.852Z,53.00
2019-03-31T21:26:36.980Z,52.80
2019-03-31T21:29:06.693Z,52.80
2019-03-31T21:31:35.540Z,52.90
2019-03-31T21:34:05.437Z,53.30
2019-03-31T21:36:34.400Z,53.30
2019-03-31T21:39:04.989Z,53.20
2019-03-31T21:41:33.881Z,54.30
2019-03-31T21:44:03.224Z,54.00
2019-03-31T21:46:33.220Z,53.80
2019-03-31T21:49:04.277Z,53.80
2019-03-31T21:51:33.273Z,54.00
2019-03-31T21:54:02.130Z,54.20
2019-03-31T21:56:31.051Z,54.80
2019-03-31T21:59:00.007Z,55.60
2019-03-31T22:01:28.802Z,55.10
2019-03-31T22:03:57.791Z,55.50
2019-03-31T22:06:26.600Z,54.90
2019-03-31T22:08:56.070Z,54.70
2019-03-31T22:11:25.014Z,55.00
2019-03-31T22:13:53.901Z,55.00
2019-03-31T22:16:22.680Z,55.60
2019-03-31T22:18:51.485Z,55.60
2019-03-31T22:21:20.280Z,56.90
2019-03-31T22:23:57.864Z,56.70
2019-03-31T22:26:19.957Z,57.60
2019-03-31T22:28:49.096Z,57.80
2019-03-31T22:31:18.810Z,57.90
2019-03-31T22:33:47.870Z,58.20
2019-03-31T22:36:23.690Z,58.00
2019-03-31T22:38:53.440Z,58.00
2019-03-31T22:41:22.711Z,58.10
2019-03-31T22:43:52.136Z,57.90
2019-03-31T22:46:20.910Z,58.80
2019-03-31T22:48:49.873Z,59.20
2019-03-31T22:51:18.790Z,59.40
2019-03-31T22:53:47.671Z,59.90
2019-03-31T22:56:16.421Z,59.40
2019-03-31T22:58:45.220Z,59.30
2019-03-31T23:01:14.533Z,59.30
2019-03-31T23:03:43.641Z,59.40
2019-03-31T23:06:12.411Z,59.60
2019-03-31T23:08:41.471Z,59.60
2019-03-31T23:11:10.482Z,59.50
2019-03-31T23:13:39.971Z,59.70
2019-03-31T23:16:08.630Z,60.00
2019-03-31T23:18:37.922Z,60.10
2019-03-31T23:21:06.853Z,61.20
2019-03-31T23:23:35.756Z,60.60
2019-03-31T23:26:05.532Z,60.90
2019-03-31T23:28:36.111Z,61.10
2019-03-31T23:31:05.449Z,61.30
2019-03-31T23:33:34.431Z,61.60
2019-03-31T23:36:03.795Z,61.40
2019-03-31T23:38:32.950Z,61.30
2019-03-31T23:41:01.885Z,61.80
2019-03-31T23:43:30.670Z,61.90
2019-03-31T23:45:59.601Z,62.10
2019-03-31T23:48:28.475Z,62.50
2019-03-31T23:50:57.281Z,61.80
2019-03-31T23:53:26.121Z,62.00
2019-03-31T23:55:55.070Z,62.20
2019-03-31T23:58:23.811Z,61.90
